PWSweather.com
Personal Weather Stations
Station Observations
RRFWEATHER
Rail Road Flat, Rail Road Flat, CA 95248

Rail Road FlatRail Road Flat, CA 95248

Lat: 38.306238, Lon: -120.514548

Elevation: 2808

Station Type: Davis Vantage Pro2

http://www.railroadflat.org

Latest ConditionsUpdated 11:30:01 PM PDT Wednesday, Mar 20, 2019
Currently Today's Max Today's Min Today's Average
Temperature 41.1°F5.1°C 51.4°F10.8°C 40.9°F4.9°C 44.3°F6.8°C
Dew Point 39.5°F4.2°C 45.9°F7.7°C 39.1°F3.9°C 41.2°F5.1°C
Winds Calm Calm 11.5 mph -18.5 kmh - - 3.5 mph 5.6 kmh
Wind Gusts -- 17.3 mph27.8 kmh - -
Humidity 94% 94% 72% 89%
Pressure 30.05 in1017.6 mb 30.05 in1017.6 mb 29.81 in1009.5 mb -
Precipitation - 0.52 in13.2 mm - -
Hour Temp Dew Point Humidity Winds Wind Gusts Pressure Precip Precip Rate Daily Precip Total
11:30 PM 41.1°F5.1°C 39.5°F4.2°C 94% Calm Calm -- 30.05 in1017.6 mb - 0.00 in0.0 mm 0.52 in13.2 mm
11:25 PM 41.0°F5.0°C 39.4°F4.1°C 94% Calm Calm -- 30.05 in1017.6 mb - 0.00 in0.0 mm 0.52 in13.2 mm
11:20 PM 41.0°F5.0°C 39.4°F4.1°C 94% Calm Calm -- 30.05 in1017.6 mb - 0.00 in0.0 mm 0.52 in13.2 mm
11:15 PM 41.0°F5.0°C 39.4°F4.1°C 94% Calm Calm -- 30.05 in1017.6 mb - 0.00 in0.0 mm 0.52 in13.2 mm
11:10 PM 41.0°F5.0°C 39.4°F4.1°C 94% Calm Calm -- 30.04 in1017.3 mb - 0.00 in0.0 mm 0.52 in13.2 mm
11:00 PM 41.0°F5.0°C 39.4°F4.1°C 94% Calm Calm 1.2 mph1.9 kmh 30.04 in1017.3 mb - 0.00 in0.0 mm 0.52 in13.2 mm
10:55 PM 41.0°F5.0°C 39.4°F4.1°C 94% Calm Calm 1.2 mph1.9 kmh 30.04 in1017.3 mb - 0.00 in0.0 mm 0.52 in13.2 mm
10:50 PM 41.0°F5.0°C 39.5°F4.2°C 94% Calm Calm 1.2 mph1.9 kmh 30.04 in1017.3 mb - 0.00 in0.0 mm 0.52 in13.2 mm
10:45 PM 41.0°F5.0°C 39.4°F4.1°C 94% 1.2 mph NNE1.9 kmh NNE 2.3 mph3.7 kmh 30.04 in1017.3 mb - 0.00 in0.0 mm 0.52 in13.2 mm
10:40 PM 41.0°F5.0°C 39.4°F4.1°C 94% Calm Calm -- 30.04 in1017.3 mb - 0.00 in0.0 mm 0.52 in13.2 mm
10:35 PM 41.0°F5.0°C 39.4°F4.1°C 94% Calm Calm -- 30.04 in1017.3 mb - 0.00 in0.0 mm 0.52 in13.2 mm
10:30 PM 41.0°F5.0°C 39.4°F4.1°C 94% Calm Calm -- 30.04 in1017.3 mb - 0.00 in0.0 mm 0.52 in13.2 mm
10:25 PM 41.0°F5.0°C 39.4°F4.1°C 94% Calm Calm -- 30.04 in1017.3 mb - 0.00 in0.0 mm 0.52 in13.2 mm
10:20 PM 41.0°F5.0°C 39.4°F4.1°C 94% Calm Calm -- 30.04 in1017.3 mb - 0.00 in0.0 mm 0.52 in13.2 mm
10:15 PM 40.9°F4.9°C 39.1°F3.9°C 93% Calm Calm -- 30.03 in1016.9 mb - 0.00 in0.0 mm 0.52 in13.2 mm
10:10 PM 41.0°F5.0°C 39.1°F3.9°C 93% Calm Calm -- 30.03 in1016.9 mb - 0.00 in0.0 mm 0.52 in13.2 mm
10:00 PM 41.1°F5.1°C 39.2°F4.0°C 93% Calm Calm -- 30.03 in1016.9 mb - 0.00 in0.0 mm 0.52 in13.2 mm
09:55 PM 41.1°F5.1°C 39.2°F4.0°C 93% Calm Calm -- 30.03 in1016.9 mb - 0.00 in0.0 mm 0.52 in13.2 mm
09:50 PM 41.2°F5.1°C 39.3°F4.1°C 93% Calm Calm -- 30.03 in1016.9 mb - 0.00 in0.0 mm 0.52 in13.2 mm
09:45 PM 41.2°F5.1°C 39.3°F4.1°C 93% Calm Calm -- 30.03 in1016.9 mb - 0.00 in0.0 mm 0.52 in13.2 mm
09:40 PM 41.3°F5.2°C 39.4°F4.1°C 93% Calm Calm -- 30.03 in1016.9 mb - 0.00 in0.0 mm 0.52 in13.2 mm
09:35 PM 41.4°F5.2°C 39.2°F4.0°C 92% Calm Calm -- 30.03 in1016.9 mb - 0.00 in0.0 mm 0.52 in13.2 mm
09:30 PM 41.4°F5.2°C 39.3°F4.1°C 92% Calm Calm -- 30.03 in1016.9 mb - 0.00 in0.0 mm 0.52 in13.2 mm
09:25 PM 41.5°F5.3°C 39.3°F4.1°C 92% Calm Calm -- 30.02 in1016.6 mb - 0.00 in0.0 mm 0.52 in13.2 mm
09:20 PM 41.6°F5.3°C 39.5°F4.2°C 92% Calm Calm -- 30.02 in1016.6 mb - 0.00 in0.0 mm 0.52 in13.2 mm
09:15 PM 41.7°F5.4°C 39.5°F4.2°C 92% Calm Calm -- 30.02 in1016.6 mb - 0.00 in0.0 mm 0.52 in13.2 mm
09:10 PM 41.7°F5.4°C 39.6°F4.2°C 92% Calm Calm -- 30.02 in1016.6 mb - 0.00 in0.0 mm 0.52 in13.2 mm
09:00 PM 41.8°F5.4°C 39.6°F4.2°C 92% Calm Calm -- 30.02 in1016.6 mb - 0.00 in0.0 mm 0.52 in13.2 mm
08:55 PM 41.8°F5.4°C 39.6°F4.2°C 92% Calm Calm -- 30.02 in1016.6 mb - 0.00 in0.0 mm 0.52 in13.2 mm
08:50 PM 41.9°F5.5°C 39.7°F4.3°C 92% Calm Calm -- 30.02 in1016.6 mb - 0.00 in0.0 mm 0.52 in13.2 mm
08:45 PM 41.9°F5.5°C 39.8°F4.3°C 92% Calm Calm -- 30.01 in1016.3 mb - 0.01 in0.3 mm 0.52 in13.2 mm
08:40 PM 42.0°F5.6°C 39.8°F4.3°C 92% Calm Calm -- 30.01 in1016.3 mb - 0.01 in0.3 mm 0.52 in13.2 mm
08:35 PM 42.1°F5.6°C 40.0°F4.4°C 92% Calm Calm -- 30.01 in1016.3 mb - 0.01 in0.3 mm 0.52 in13.2 mm
08:30 PM 42.3°F5.7°C 40.1°F4.5°C 92% Calm Calm -- 30.01 in1016.3 mb - 0.02 in0.5 mm 0.52 in13.2 mm
08:25 PM 42.4°F5.8°C 40.0°F4.4°C 91% Calm Calm -- 30.01 in1016.3 mb - 0.02 in0.5 mm 0.52 in13.2 mm
08:20 PM 42.6°F5.9°C 40.2°F4.6°C 91% Calm Calm -- 30.01 in1016.3 mb - 0.03 in0.8 mm 0.52 in13.2 mm
08:15 PM 42.6°F5.9°C 39.9°F4.4°C 90% Calm Calm -- 30.01 in1016.3 mb - 0.03 in0.8 mm 0.52 in13.2 mm
08:10 PM 42.5°F5.8°C 39.5°F4.2°C 89% Calm Calm -- 30.01 in1016.3 mb - 0.03 in0.8 mm 0.52 in13.2 mm
08:00 PM 42.9°F6.1°C 40.2°F4.6°C 90% Calm Calm -- 30.01 in1016.3 mb - 0.03 in0.8 mm 0.52 in13.2 mm
07:55 PM 43.1°F6.2°C 40.4°F4.7°C 90% Calm Calm -- 30.01 in1016.3 mb - 0.03 in0.8 mm 0.52 in13.2 mm
07:50 PM 43.3°F6.3°C 40.6°F4.8°C 90% Calm Calm -- 30.01 in1016.3 mb - 0.03 in0.8 mm 0.52 in13.2 mm
07:45 PM 43.5°F6.4°C 40.7°F4.8°C 90% Calm Calm -- 30.01 in1016.3 mb - 0.02 in0.5 mm 0.51 in13.0 mm
07:40 PM 43.8°F6.6°C 41.3°F5.2°C 91% Calm Calm -- 30.01 in1016.3 mb - 0.02 in0.5 mm 0.51 in13.0 mm
07:35 PM 43.9°F6.6°C 41.5°F5.3°C 91% Calm Calm -- 30.01 in1016.3 mb - 0.02 in0.5 mm 0.51 in13.0 mm
07:30 PM 44.1°F6.7°C 41.6°F5.3°C 91% Calm Calm -- 30.01 in1016.3 mb - 0.01 in0.3 mm 0.50 in12.7 mm
07:25 PM 44.2°F6.8°C 41.5°F5.3°C 90% Calm Calm -- 30.01 in1016.3 mb - 0.01 in0.3 mm 0.50 in12.7 mm
07:20 PM 44.4°F6.9°C 41.6°F5.3°C 90% Calm Calm -- 30.01 in1016.3 mb - 0.01 in0.3 mm 0.50 in12.7 mm
07:15 PM 44.7°F7.1°C 41.9°F5.5°C 90% Calm Calm -- 30.01 in1016.3 mb - 0.00 in0.0 mm 0.49 in12.4 mm
07:10 PM 44.9°F7.2°C 42.1°F5.6°C 90% Calm Calm -- 30.01 in1016.3 mb - 0.00 in0.0 mm 0.49 in12.4 mm
07:00 PM 45.5°F7.5°C 42.5°F5.8°C 89% Calm Calm -- 30.01 in1016.3 mb - 0.00 in0.0 mm 0.49 in12.4 mm
06:55 PM 45.8°F7.7°C 43.1°F6.2°C 90% Calm Calm -- 30.01 in1016.3 mb - 0.00 in0.0 mm 0.49 in12.4 mm
06:50 PM 46.1°F7.8°C 43.6°F6.4°C 91% Calm Calm -- 30.00 in1015.9 mb - 0.00 in0.0 mm 0.49 in12.4 mm
06:45 PM 46.3°F7.9°C 43.5°F6.4°C 90% Calm Calm -- 30.00 in1015.9 mb - 0.00 in0.0 mm 0.49 in12.4 mm
06:40 PM 46.6°F8.1°C 44.1°F6.7°C 91% Calm Calm -- 30.01 in1016.3 mb - 0.00 in0.0 mm 0.49 in12.4 mm
06:35 PM 46.5°F8.1°C 44.0°F6.7°C 91% Calm Calm -- 30.00 in1015.9 mb - 0.00 in0.0 mm 0.49 in12.4 mm
06:30 PM 46.2°F7.9°C 44.0°F6.7°C 92% Calm Calm -- 30.01 in1016.3 mb - 0.00 in0.0 mm 0.49 in12.4 mm
06:25 PM 45.7°F7.6°C 43.8°F6.6°C 93% Calm Calm -- 30.00 in1015.9 mb - 0.00 in0.0 mm 0.49 in12.4 mm
06:20 PM 45.2°F7.3°C 43.3°F6.3°C 93% Calm Calm -- 30.00 in1015.9 mb - 0.01 in0.3 mm 0.49 in12.4 mm
06:15 PM 44.9°F7.2°C 43.0°F6.1°C 93% Calm Calm -- 30.00 in1015.9 mb - 0.01 in0.3 mm 0.49 in12.4 mm
06:10 PM 44.7°F7.1°C 43.0°F6.1°C 94% Calm Calm -- 30.00 in1015.9 mb - 0.04 in1.0 mm 0.49 in12.4 mm
06:00 PM 44.0°F6.7°C 42.1°F5.6°C 93% Calm Calm -- 30.00 in1015.9 mb - 0.04 in1.0 mm 0.49 in12.4 mm
05:55 PM 43.7°F6.5°C 41.8°F5.4°C 93% Calm Calm -- 29.99 in1015.6 mb - 0.04 in1.0 mm 0.49 in12.4 mm
05:50 PM 43.4°F6.3°C 41.3°F5.2°C 92% Calm Calm -- 29.99 in1015.6 mb - 0.04 in1.0 mm 0.49 in12.4 mm
05:45 PM 43.2°F6.2°C 41.0°F5.0°C 92% Calm Calm 3.5 mph5.6 kmh 29.99 in1015.6 mb - 0.04 in1.0 mm 0.49 in12.4 mm
05:40 PM 43.3°F6.3°C 40.8°F4.9°C 91% 1.2 mph WSW1.9 kmh WSW 3.5 mph5.6 kmh 29.99 in1015.6 mb - 0.04 in1.0 mm 0.49 in12.4 mm
05:35 PM 43.5°F6.4°C 41.0°F5.0°C 91% Calm Calm 6.9 mph11.1 kmh 29.99 in1015.6 mb - 0.04 in1.0 mm 0.49 in12.4 mm
05:30 PM 43.7°F6.5°C 41.0°F5.0°C 90% 2.3 mph W3.7 kmh W 5.8 mph9.3 kmh 29.99 in1015.6 mb - 0.04 in1.0 mm 0.49 in12.4 mm
05:25 PM 44.1°F6.7°C 41.0°F5.0°C 89% 2.3 mph WNW3.7 kmh WNW 3.5 mph5.6 kmh 29.99 in1015.6 mb - 0.04 in1.0 mm 0.49 in12.4 mm
05:20 PM 44.8°F7.1°C 41.4°F5.2°C 88% 4.6 mph W7.4 kmh W 9.2 mph14.8 kmh 29.98 in1015.2 mb - 0.03 in0.8 mm 0.48 in12.2 mm
05:15 PM 45.8°F7.7°C 42.5°F5.8°C 88% 1.2 mph NW1.9 kmh NW 3.5 mph5.6 kmh 29.99 in1015.6 mb - 0.03 in0.8 mm 0.48 in12.2 mm
05:10 PM 47.0°F8.3°C 42.8°F6.0°C 85% 4.6 mph W7.4 kmh W 11.5 mph18.5 kmh 29.98 in1015.2 mb - 0.00 in0.0 mm 0.45 in11.4 mm
05:00 PM 49.7°F9.8°C 42.8°F6.0°C 77% 2.3 mph WSW3.7 kmh WSW 5.8 mph9.3 kmh 29.98 in1015.2 mb - 0.00 in0.0 mm 0.45 in11.4 mm
04:55 PM 50.0°F10.0°C 42.7°F5.9°C 76% Calm Calm -- 29.97 in1014.9 mb - 0.00 in0.0 mm 0.45 in11.4 mm
04:50 PM 50.3°F10.2°C 42.6°F5.9°C 75% 1.2 mph SSE1.9 kmh SSE 3.5 mph5.6 kmh 29.97 in1014.9 mb - 0.00 in0.0 mm 0.45 in11.4 mm
04:45 PM 50.6°F10.3°C 43.3°F6.3°C 76% 1.2 mph S1.9 kmh S 2.3 mph3.7 kmh 29.97 in1014.9 mb - 0.00 in0.0 mm 0.45 in11.4 mm
04:40 PM 50.7°F10.4°C 43.0°F6.1°C 75% 3.5 mph SSE5.6 kmh SSE 6.9 mph11.1 kmh 29.97 in1014.9 mb - 0.00 in0.0 mm 0.45 in11.4 mm
04:35 PM 50.3°F10.2°C 43.1°F6.2°C 76% Calm Calm -- 29.97 in1014.9 mb - 0.00 in0.0 mm 0.45 in11.4 mm
04:30 PM 50.1°F10.1°C 42.8°F6.0°C 76% Calm Calm -- 29.97 in1014.9 mb - 0.00 in0.0 mm 0.45 in11.4 mm
04:25 PM 49.9°F9.9°C 43.3°F6.3°C 78% Calm Calm -- 29.98 in1015.2 mb - 0.00 in0.0 mm 0.45 in11.4 mm
04:20 PM 49.9°F9.9°C 43.0°F6.1°C 77% Calm Calm -- 29.97 in1014.9 mb - 0.00 in0.0 mm 0.45 in11.4 mm
04:15 PM 49.9°F9.9°C 43.0°F6.1°C 77% Calm Calm -- 29.97 in1014.9 mb - 0.00 in0.0 mm 0.45 in11.4 mm
04:10 PM 49.8°F9.9°C 42.1°F5.6°C 75% Calm Calm -- 29.97 in1014.9 mb - 0.00 in0.0 mm 0.45 in11.4 mm
04:00 PM 49.8°F9.9°C 42.2°F5.7°C 75% Calm Calm -- 29.98 in1015.2 mb - 0.00 in0.0 mm 0.45 in11.4 mm
03:55 PM 49.9°F9.9°C 41.9°F5.5°C 74% Calm Calm 2.3 mph3.7 kmh 29.97 in1014.9 mb - 0.00 in0.0 mm 0.45 in11.4 mm
03:50 PM 50.1°F10.1°C 41.8°F5.4°C 73% 1.2 mph SSE1.9 kmh SSE 3.5 mph5.6 kmh 29.97 in1014.9 mb - 0.00 in0.0 mm 0.45 in11.4 mm
03:45 PM 50.5°F10.3°C 42.2°F5.7°C 73% 2.3 mph S3.7 kmh S 4.6 mph7.4 kmh 29.98 in1015.2 mb - 0.00 in0.0 mm 0.45 in11.4 mm
03:40 PM 50.9°F10.5°C 42.2°F5.7°C 72% Calm Calm 2.3 mph3.7 kmh 29.98 in1015.2 mb - 0.00 in0.0 mm 0.45 in11.4 mm
03:35 PM 51.4°F10.8°C 43.4°F6.3°C 74% 3.5 mph SSE5.6 kmh SSE 8.1 mph13.0 kmh 29.97 in1014.9 mb - 0.00 in0.0 mm 0.45 in11.4 mm
03:30 PM 50.8°F10.4°C 43.8°F6.6°C 77% 3.5 mph S5.6 kmh S 5.8 mph9.3 kmh 29.97 in1014.9 mb - 0.00 in0.0 mm 0.45 in11.4 mm
03:25 PM 50.5°F10.3°C 43.2°F6.2°C 76% 1.2 mph SE1.9 kmh SE 2.3 mph3.7 kmh 29.97 in1014.9 mb - 0.00 in0.0 mm 0.45 in11.4 mm
03:20 PM 50.2°F10.1°C 43.7°F6.5°C 78% 2.3 mph SSE3.7 kmh SSE 6.9 mph11.1 kmh 29.97 in1014.9 mb - 0.00 in0.0 mm 0.45 in11.4 mm
03:15 PM 50.4°F10.2°C 43.5°F6.4°C 77% 3.5 mph SSE5.6 kmh SSE 6.9 mph11.1 kmh 29.97 in1014.9 mb - 0.00 in0.0 mm 0.45 in11.4 mm
03:10 PM 49.8°F9.9°C 44.2°F6.8°C 81% Calm Calm 3.5 mph5.6 kmh 29.97 in1014.9 mb - 0.00 in0.0 mm 0.45 in11.4 mm
03:00 PM 49.5°F9.7°C 43.2°F6.2°C 79% 1.2 mph ESE1.9 kmh ESE 1.2 mph1.9 kmh 29.98 in1015.2 mb - 0.00 in0.0 mm 0.45 in11.4 mm
02:55 PM 49.7°F9.8°C 44.7°F7.1°C 83% 2.3 mph SE3.7 kmh SE 3.5 mph5.6 kmh 29.98 in1015.2 mb - 0.00 in0.0 mm 0.45 in11.4 mm
02:50 PM 49.3°F9.6°C 45.9°F7.7°C 88% 3.5 mph SE5.6 kmh SE 6.9 mph11.1 kmh 29.98 in1015.2 mb - 0.00 in0.0 mm 0.45 in11.4 mm
02:45 PM 48.2°F9.0°C 45.1°F7.3°C 89% 2.3 mph SE3.7 kmh SE 3.5 mph5.6 kmh 29.98 in1015.2 mb - 0.00 in0.0 mm 0.45 in11.4 mm
02:40 PM 47.9°F8.8°C 44.2°F6.8°C 87% 3.5 mph ESE5.6 kmh ESE 3.5 mph5.6 kmh 29.98 in1015.2 mb - 0.00 in0.0 mm 0.45 in11.4 mm
02:35 PM 48.1°F8.9°C 44.4°F6.9°C 87% 3.5 mph SSE5.6 kmh SSE 5.8 mph9.3 kmh 29.98 in1015.2 mb - 0.00 in0.0 mm 0.45 in11.4 mm
02:30 PM 47.7°F8.7°C 44.9°F7.2°C 90% 2.3 mph E3.7 kmh E 5.8 mph9.3 kmh 29.99 in1015.6 mb - 0.00 in0.0 mm 0.45 in11.4 mm
02:25 PM 46.9°F8.3°C 44.2°F6.8°C 90% 1.2 mph S1.9 kmh S 4.6 mph7.4 kmh 29.99 in1015.6 mb - 0.00 in0.0 mm 0.45 in11.4 mm
02:20 PM 46.5°F8.1°C 43.7°F6.5°C 90% 1.2 mph S1.9 kmh S 4.6 mph7.4 kmh 29.98 in1015.2 mb - 0.01 in0.3 mm 0.45 in11.4 mm
02:15 PM 46.1°F7.8°C 43.4°F6.3°C 90% 3.5 mph SE5.6 kmh SE 4.6 mph7.4 kmh 29.99 in1015.6 mb - 0.01 in0.3 mm 0.45 in11.4 mm
02:10 PM 45.9°F7.7°C 43.4°F6.3°C 91% 1.2 mph SSE1.9 kmh SSE 3.5 mph5.6 kmh 29.99 in1015.6 mb - 0.01 in0.3 mm 0.45 in11.4 mm
02:00 PM 45.6°F7.6°C 43.1°F6.2°C 91% 2.3 mph SE3.7 kmh SE 5.8 mph9.3 kmh 29.99 in1015.6 mb - 0.01 in0.3 mm 0.45 in11.4 mm
01:55 PM 45.5°F7.5°C 43.0°F6.1°C 91% 2.3 mph SSE3.7 kmh SSE 3.5 mph5.6 kmh 29.99 in1015.6 mb - 0.01 in0.3 mm 0.45 in11.4 mm
01:50 PM 45.4°F7.4°C 42.6°F5.9°C 90% 3.5 mph SE5.6 kmh SE 4.6 mph7.4 kmh 29.99 in1015.6 mb - 0.01 in0.3 mm 0.45 in11.4 mm
01:45 PM 45.3°F7.4°C 42.5°F5.8°C 90% 3.5 mph SE5.6 kmh SE 5.8 mph9.3 kmh 30.00 in1015.9 mb - 0.01 in0.3 mm 0.45 in11.4 mm
01:40 PM 45.2°F7.3°C 42.5°F5.8°C 90% 3.5 mph SE5.6 kmh SE 3.5 mph5.6 kmh 30.00 in1015.9 mb - 0.01 in0.3 mm 0.45 in11.4 mm
01:35 PM 45.2°F7.3°C 42.5°F5.8°C 90% 3.5 mph SE5.6 kmh SE 5.8 mph9.3 kmh 30.00 in1015.9 mb - 0.01 in0.3 mm 0.45 in11.4 mm
01:30 PM 45.4°F7.4°C 42.9°F6.1°C 91% 4.6 mph SSE7.4 kmh SSE 8.1 mph13.0 kmh 30.00 in1015.9 mb - 0.01 in0.3 mm 0.45 in11.4 mm
01:25 PM 45.4°F7.4°C 42.9°F6.1°C 91% 4.6 mph SE7.4 kmh SE 8.1 mph13.0 kmh 30.00 in1015.9 mb - 0.01 in0.3 mm 0.45 in11.4 mm
01:20 PM 45.5°F7.5°C 42.7°F5.9°C 90% 5.8 mph SSE9.3 kmh SSE 8.1 mph13.0 kmh 30.00 in1015.9 mb - 0.00 in0.0 mm 0.44 in11.2 mm
01:15 PM 45.4°F7.4°C 42.9°F6.1°C 91% 3.5 mph SSE5.6 kmh SSE 5.8 mph9.3 kmh 30.00 in1015.9 mb - 0.00 in0.0 mm 0.44 in11.2 mm
01:10 PM 45.3°F7.4°C 42.8°F6.0°C 91% 4.6 mph SE7.4 kmh SE 6.9 mph11.1 kmh 30.00 in1015.9 mb - 0.01 in0.3 mm 0.44 in11.2 mm
01:00 PM 45.1°F7.3°C 42.1°F5.6°C 89% 5.8 mph SSE9.3 kmh SSE 6.9 mph11.1 kmh 30.00 in1015.9 mb - 0.01 in0.3 mm 0.44 in11.2 mm
12:55 PM 45.3°F7.4°C 42.2°F5.7°C 89% 6.9 mph S11.1 kmh S 11.5 mph18.5 kmh 30.00 in1015.9 mb - 0.01 in0.3 mm 0.44 in11.2 mm
12:50 PM 45.4°F7.4°C 42.6°F5.9°C 90% 6.9 mph SSE11.1 kmh SSE 11.5 mph18.5 kmh 30.00 in1015.9 mb - 0.01 in0.3 mm 0.44 in11.2 mm
12:45 PM 45.4°F7.4°C 42.4°F5.8°C 89% 5.8 mph SSE9.3 kmh SSE 6.9 mph11.1 kmh 30.00 in1015.9 mb - 0.01 in0.3 mm 0.44 in11.2 mm
12:40 PM 45.5°F7.5°C 42.4°F5.8°C 89% 5.8 mph SSE9.3 kmh SSE 8.1 mph13.0 kmh 30.00 in1015.9 mb - 0.01 in0.3 mm 0.44 in11.2 mm
12:35 PM 45.5°F7.5°C 42.5°F5.8°C 89% 6.9 mph SSE11.1 kmh SSE 11.5 mph18.5 kmh 30.00 in1015.9 mb - 0.01 in0.3 mm 0.44 in11.2 mm
12:30 PM 45.5°F7.5°C 42.7°F5.9°C 90% 6.9 mph SE11.1 kmh SE 10.4 mph16.7 kmh 30.00 in1015.9 mb - 0.01 in0.3 mm 0.44 in11.2 mm
12:25 PM 45.5°F7.5°C 43.0°F6.1°C 91% 5.8 mph S9.3 kmh S 10.4 mph16.7 kmh 30.00 in1015.9 mb - 0.01 in0.3 mm 0.44 in11.2 mm
12:20 PM 45.2°F7.3°C 42.7°F5.9°C 91% 5.8 mph SSE9.3 kmh SSE 9.2 mph14.8 kmh 30.00 in1015.9 mb - 0.01 in0.3 mm 0.44 in11.2 mm
12:15 PM 44.8°F7.1°C 42.4°F5.8°C 91% 5.8 mph SSE9.3 kmh SSE 10.4 mph16.7 kmh 29.99 in1015.6 mb - 0.01 in0.3 mm 0.44 in11.2 mm
12:10 PM 44.6°F7.0°C 41.8°F5.4°C 90% 8.1 mph S13.0 kmh S 11.5 mph18.5 kmh 29.99 in1015.6 mb - 0.00 in0.0 mm 0.43 in10.9 mm
12:00 PM 44.5°F6.9°C 42.0°F5.6°C 91% 5.8 mph S9.3 kmh S 9.2 mph14.8 kmh 29.99 in1015.6 mb - 0.00 in0.0 mm 0.43 in10.9 mm
11:55 AM 44.4°F6.9°C 41.6°F5.3°C 90% 5.8 mph S9.3 kmh S 9.2 mph14.8 kmh 29.99 in1015.6 mb - 0.00 in0.0 mm 0.43 in10.9 mm
11:50 AM 44.4°F6.9°C 41.7°F5.4°C 90% 8.1 mph SSE13.0 kmh SSE 15.0 mph24.1 kmh 29.99 in1015.6 mb - 0.00 in0.0 mm 0.43 in10.9 mm
11:45 AM 44.6°F7.0°C 41.6°F5.3°C 89% 9.2 mph S14.8 kmh S 11.5 mph18.5 kmh 29.99 in1015.6 mb - 0.00 in0.0 mm 0.43 in10.9 mm
11:40 AM 44.7°F7.1°C 41.4°F5.2°C 88% 9.2 mph SE14.8 kmh SE 13.8 mph22.2 kmh 29.98 in1015.2 mb - 0.00 in0.0 mm 0.43 in10.9 mm
11:35 AM 45.0°F7.2°C 42.0°F5.6°C 89% 8.1 mph SE13.0 kmh SE 13.8 mph22.2 kmh 29.98 in1015.2 mb - 0.00 in0.0 mm 0.43 in10.9 mm
11:30 AM 45.2°F7.3°C 42.1°F5.6°C 89% 6.9 mph SSE11.1 kmh SSE 10.4 mph16.7 kmh 29.98 in1015.2 mb - 0.00 in0.0 mm 0.43 in10.9 mm
11:25 AM 45.3°F7.4°C 41.9°F5.5°C 88% 6.9 mph SSE11.1 kmh SSE 11.5 mph18.5 kmh 29.98 in1015.2 mb - 0.00 in0.0 mm 0.43 in10.9 mm
11:20 AM 45.4°F7.4°C 41.8°F5.4°C 87% 10.4 mph SE16.7 kmh SE 17.3 mph27.8 kmh 29.98 in1015.2 mb - 0.00 in0.0 mm 0.43 in10.9 mm
11:15 AM 45.4°F7.4°C 41.5°F5.3°C 86% 11.5 mph SSE18.5 kmh SSE 13.8 mph22.2 kmh 29.98 in1015.2 mb - 0.00 in0.0 mm 0.43 in10.9 mm
11:10 AM 45.3°F7.4°C 41.6°F5.3°C 87% 10.4 mph S16.7 kmh S 11.5 mph18.5 kmh 29.98 in1015.2 mb - 0.00 in0.0 mm 0.43 in10.9 mm
11:00 AM 44.5°F6.9°C 41.8°F5.4°C 90% 6.9 mph SE11.1 kmh SE 8.1 mph13.0 kmh 29.97 in1014.9 mb - 0.00 in0.0 mm 0.43 in10.9 mm
10:55 AM 44.3°F6.8°C 41.8°F5.4°C 91% 6.9 mph SE11.1 kmh SE 15.0 mph24.1 kmh 29.97 in1014.9 mb - 0.00 in0.0 mm 0.43 in10.9 mm
10:50 AM 44.1°F6.7°C 41.4°F5.2°C 90% 8.1 mph SSE13.0 kmh SSE 10.4 mph16.7 kmh 29.97 in1014.9 mb - 0.00 in0.0 mm 0.43 in10.9 mm
10:45 AM 44.1°F6.7°C 41.3°F5.2°C 90% 8.1 mph SE13.0 kmh SE 13.8 mph22.2 kmh 29.96 in1014.6 mb - 0.00 in0.0 mm 0.43 in10.9 mm
10:40 AM 44.1°F6.7°C 41.6°F5.3°C 91% 8.1 mph SSE13.0 kmh SSE 16.1 mph25.9 kmh 29.96 in1014.6 mb - 0.00 in0.0 mm 0.43 in10.9 mm
10:35 AM 44.0°F6.7°C 41.5°F5.3°C 91% 8.1 mph SE13.0 kmh SE 12.7 mph20.4 kmh 29.96 in1014.6 mb - 0.01 in0.3 mm 0.43 in10.9 mm
10:30 AM 44.0°F6.7°C 41.8°F5.4°C 92% 8.1 mph SE13.0 kmh SE 13.8 mph22.2 kmh 29.96 in1014.6 mb - 0.01 in0.3 mm 0.43 in10.9 mm
10:25 AM 43.9°F6.6°C 41.7°F5.4°C 92% 5.8 mph S9.3 kmh S 12.7 mph20.4 kmh 29.96 in1014.6 mb - 0.01 in0.3 mm 0.43 in10.9 mm
10:20 AM 43.8°F6.6°C 41.3°F5.2°C 91% 8.1 mph SSE13.0 kmh SSE 15.0 mph24.1 kmh 29.96 in1014.6 mb - 0.01 in0.3 mm 0.43 in10.9 mm
10:15 AM 43.7°F6.5°C 41.5°F5.3°C 92% 6.9 mph SE11.1 kmh SE 10.4 mph16.7 kmh 29.96 in1014.6 mb - 0.01 in0.3 mm 0.43 in10.9 mm
10:10 AM 43.6°F6.4°C 41.4°F5.2°C 92% 6.9 mph SE11.1 kmh SE 10.4 mph16.7 kmh 29.95 in1014.2 mb - 0.01 in0.3 mm 0.43 in10.9 mm
10:00 AM 43.6°F6.4°C 41.1°F5.1°C 91% 8.1 mph SSE13.0 kmh SSE 11.5 mph18.5 kmh 29.95 in1014.2 mb - 0.01 in0.3 mm 0.43 in10.9 mm
09:55 AM 43.6°F6.4°C 41.2°F5.1°C 91% 9.2 mph SE14.8 kmh SE 11.5 mph18.5 kmh 29.95 in1014.2 mb - 0.01 in0.3 mm 0.43 in10.9 mm
09:50 AM 43.6°F6.4°C 40.9°F4.9°C 90% 9.2 mph SE14.8 kmh SE 11.5 mph18.5 kmh 29.94 in1013.9 mb - 0.02 in0.5 mm 0.43 in10.9 mm
09:45 AM 43.6°F6.4°C 41.5°F5.3°C 92% 9.2 mph SE14.8 kmh SE 12.7 mph20.4 kmh 29.94 in1013.9 mb - 0.02 in0.5 mm 0.43 in10.9 mm
09:40 AM 43.6°F6.4°C 41.2°F5.1°C 91% 9.2 mph SE14.8 kmh SE 12.7 mph20.4 kmh 29.94 in1013.9 mb - 0.02 in0.5 mm 0.43 in10.9 mm
09:35 AM 43.6°F6.4°C 41.1°F5.1°C 91% 9.2 mph SSE14.8 kmh SSE 11.5 mph18.5 kmh 29.94 in1013.9 mb - 0.02 in0.5 mm 0.42 in10.7 mm
09:30 AM 43.6°F6.4°C 41.1°F5.1°C 91% 10.4 mph S16.7 kmh S 12.7 mph20.4 kmh 29.93 in1013.5 mb - 0.02 in0.5 mm 0.42 in10.7 mm
09:25 AM 43.6°F6.4°C 41.2°F5.1°C 91% 8.1 mph SSE13.0 kmh SSE 11.5 mph18.5 kmh 29.93 in1013.5 mb - 0.02 in0.5 mm 0.42 in10.7 mm
09:20 AM 43.6°F6.4°C 41.2°F5.1°C 91% 6.9 mph SSE11.1 kmh SSE 9.2 mph14.8 kmh 29.93 in1013.5 mb - 0.03 in0.8 mm 0.42 in10.7 mm
09:15 AM 43.6°F6.4°C 41.2°F5.1°C 91% 8.1 mph SSE13.0 kmh SSE 11.5 mph18.5 kmh 29.92 in1013.2 mb - 0.03 in0.8 mm 0.42 in10.7 mm
09:10 AM 43.6°F6.4°C 40.9°F4.9°C 90% 5.8 mph S9.3 kmh S 10.4 mph16.7 kmh 29.92 in1013.2 mb - 0.03 in0.8 mm 0.42 in10.7 mm
09:00 AM 43.5°F6.4°C 40.8°F4.9°C 90% 8.1 mph S13.0 kmh S 16.1 mph25.9 kmh 29.92 in1013.2 mb - 0.03 in0.8 mm 0.42 in10.7 mm
08:55 AM 43.5°F6.4°C 40.8°F4.9°C 90% 8.1 mph SSE13.0 kmh SSE 13.8 mph22.2 kmh 29.92 in1013.2 mb - 0.03 in0.8 mm 0.42 in10.7 mm
08:50 AM 43.5°F6.4°C 40.5°F4.7°C 89% 9.2 mph SSE14.8 kmh SSE 11.5 mph18.5 kmh 29.92 in1013.2 mb - 0.02 in0.5 mm 0.41 in10.4 mm
08:45 AM 43.5°F6.4°C 40.5°F4.7°C 89% 9.2 mph SSE14.8 kmh SSE 11.5 mph18.5 kmh 29.92 in1013.2 mb - 0.02 in0.5 mm 0.41 in10.4 mm
08:40 AM 43.4°F6.3°C 40.7°F4.8°C 90% 8.1 mph SSE13.0 kmh SSE 11.5 mph18.5 kmh 29.92 in1013.2 mb - 0.02 in0.5 mm 0.41 in10.4 mm
08:35 AM 43.5°F6.4°C 40.5°F4.7°C 89% 9.2 mph SSE14.8 kmh SSE 11.5 mph18.5 kmh 29.91 in1012.9 mb - 0.01 in0.3 mm 0.40 in10.2 mm
08:30 AM 43.6°F6.4°C 40.6°F4.8°C 89% 9.2 mph SSE14.8 kmh SSE 11.5 mph18.5 kmh 29.91 in1012.9 mb - 0.01 in0.3 mm 0.40 in10.2 mm
08:25 AM 43.9°F6.6°C 40.6°F4.8°C 88% 6.9 mph SSE11.1 kmh SSE 11.5 mph18.5 kmh 29.91 in1012.9 mb - 0.01 in0.3 mm 0.40 in10.2 mm
08:20 AM 44.2°F6.8°C 40.5°F4.7°C 87% 8.1 mph S13.0 kmh S 12.7 mph20.4 kmh 29.90 in1012.5 mb - 0.00 in0.0 mm 0.39 in9.9 mm
08:15 AM 44.3°F6.8°C 40.4°F4.7°C 86% 6.9 mph SE11.1 kmh SE 13.8 mph22.2 kmh 29.90 in1012.5 mb - 0.00 in0.0 mm 0.39 in9.9 mm
08:10 AM 44.3°F6.8°C 40.4°F4.7°C 86% 4.6 mph SSE7.4 kmh SSE 8.1 mph13.0 kmh 29.90 in1012.5 mb - 0.00 in0.0 mm 0.39 in9.9 mm
08:00 AM 44.3°F6.8°C 40.0°F4.4°C 85% 5.8 mph SSE9.3 kmh SSE 9.2 mph14.8 kmh 29.89 in1012.2 mb - 0.00 in0.0 mm 0.39 in9.9 mm
07:55 AM 44.3°F6.8°C 40.1°F4.5°C 85% 6.9 mph SSE11.1 kmh SSE 9.2 mph14.8 kmh 29.89 in1012.2 mb - 0.00 in0.0 mm 0.39 in9.9 mm
07:50 AM 44.3°F6.8°C 40.1°F4.5°C 85% 5.8 mph SSE9.3 kmh SSE 9.2 mph14.8 kmh 29.89 in1012.2 mb - 0.00 in0.0 mm 0.39 in9.9 mm
07:45 AM 44.2°F6.8°C 40.0°F4.4°C 85% 5.8 mph SSE9.3 kmh SSE 9.2 mph14.8 kmh 29.89 in1012.2 mb - 0.00 in0.0 mm 0.39 in9.9 mm
07:40 AM 44.2°F6.8°C 40.0°F4.4°C 85% 6.9 mph SSE11.1 kmh SSE 9.2 mph14.8 kmh 29.89 in1012.2 mb - 0.00 in0.0 mm 0.39 in9.9 mm
07:35 AM 44.1°F6.7°C 40.2°F4.6°C 86% 4.6 mph SE7.4 kmh SE 8.1 mph13.0 kmh 29.89 in1012.2 mb - 0.00 in0.0 mm 0.39 in9.9 mm
07:30 AM 44.1°F6.7°C 39.9°F4.4°C 85% 5.8 mph SE9.3 kmh SE 11.5 mph18.5 kmh 29.89 in1012.2 mb - 0.00 in0.0 mm 0.39 in9.9 mm
07:25 AM 44.0°F6.7°C 40.4°F4.7°C 87% 4.6 mph SE7.4 kmh SE 10.4 mph16.7 kmh 29.88 in1011.9 mb - 0.00 in0.0 mm 0.39 in9.9 mm
07:20 AM 44.0°F6.7°C 40.1°F4.5°C 86% 5.8 mph SE9.3 kmh SE 10.4 mph16.7 kmh 29.88 in1011.9 mb - 0.00 in0.0 mm 0.39 in9.9 mm
07:15 AM 44.0°F6.7°C 40.3°F4.6°C 87% 3.5 mph SE5.6 kmh SE 6.9 mph11.1 kmh 29.88 in1011.9 mb - 0.00 in0.0 mm 0.39 in9.9 mm
07:10 AM 43.9°F6.6°C 40.3°F4.6°C 87% 4.6 mph SE7.4 kmh SE 9.2 mph14.8 kmh 29.88 in1011.9 mb - 0.00 in0.0 mm 0.39 in9.9 mm
07:00 AM 44.1°F6.7°C 40.1°F4.5°C 86% 5.8 mph SE9.3 kmh SE 8.1 mph13.0 kmh 29.88 in1011.9 mb - 0.00 in0.0 mm 0.39 in9.9 mm
06:55 AM 44.0°F6.7°C 40.3°F4.6°C 87% 5.8 mph SE9.3 kmh SE 9.2 mph14.8 kmh 29.88 in1011.9 mb - 0.00 in0.0 mm 0.39 in9.9 mm
06:50 AM 43.9°F6.6°C 40.3°F4.6°C 87% 5.8 mph SE9.3 kmh SE 10.4 mph16.7 kmh 29.88 in1011.9 mb - 0.00 in0.0 mm 0.39 in9.9 mm
06:45 AM 43.9°F6.6°C 40.3°F4.6°C 87% 5.8 mph SE9.3 kmh SE 10.4 mph16.7 kmh 29.88 in1011.9 mb - 0.00 in0.0 mm 0.39 in9.9 mm
06:40 AM 44.0°F6.7°C 40.3°F4.6°C 87% 4.6 mph SE7.4 kmh SE 6.9 mph11.1 kmh 29.88 in1011.9 mb - 0.00 in0.0 mm 0.39 in9.9 mm
06:35 AM 44.0°F6.7°C 40.4°F4.7°C 87% 4.6 mph SE7.4 kmh SE 9.2 mph14.8 kmh 29.87 in1011.5 mb - 0.00 in0.0 mm 0.39 in9.9 mm
06:30 AM 44.1°F6.7°C 40.1°F4.5°C 86% 5.8 mph SE9.3 kmh SE 10.4 mph16.7 kmh 29.87 in1011.5 mb - 0.00 in0.0 mm 0.39 in9.9 mm
06:25 AM 44.0°F6.7°C 40.4°F4.7°C 87% 6.9 mph SE11.1 kmh SE 13.8 mph22.2 kmh 29.87 in1011.5 mb - 0.00 in0.0 mm 0.39 in9.9 mm
06:20 AM 43.8°F6.6°C 40.2°F4.6°C 87% 8.1 mph SE13.0 kmh SE 11.5 mph18.5 kmh 29.86 in1011.2 mb - 0.00 in0.0 mm 0.39 in9.9 mm
06:15 AM 43.8°F6.6°C 40.2°F4.6°C 87% 8.1 mph SE13.0 kmh SE 11.5 mph18.5 kmh 29.86 in1011.2 mb - 0.00 in0.0 mm 0.39 in9.9 mm
06:10 AM 43.7°F6.5°C 40.4°F4.7°C 88% 6.9 mph SE11.1 kmh SE 11.5 mph18.5 kmh 29.86 in1011.2 mb - 0.00 in0.0 mm 0.39 in9.9 mm
06:00 AM 43.7°F6.5°C 40.7°F4.8°C 89% 6.9 mph SE11.1 kmh SE 11.5 mph18.5 kmh 29.86 in1011.2 mb - 0.01 in0.3 mm 0.39 in9.9 mm
05:55 AM 43.7°F6.5°C 40.7°F4.8°C 89% 6.9 mph SE11.1 kmh SE 11.5 mph18.5 kmh 29.85 in1010.8 mb - 0.01 in0.3 mm 0.39 in9.9 mm
05:50 AM 43.6°F6.4°C 40.6°F4.8°C 89% 6.9 mph SE11.1 kmh SE 11.5 mph18.5 kmh 29.85 in1010.8 mb - 0.01 in0.3 mm 0.39 in9.9 mm
05:45 AM 43.5°F6.4°C 40.8°F4.9°C 90% 6.9 mph SE11.1 kmh SE 11.5 mph18.5 kmh 29.85 in1010.8 mb - 0.01 in0.3 mm 0.39 in9.9 mm
05:40 AM 43.4°F6.3°C 40.7°F4.8°C 90% 4.6 mph SE7.4 kmh SE 8.1 mph13.0 kmh 29.85 in1010.8 mb - 0.01 in0.3 mm 0.39 in9.9 mm
05:35 AM 43.4°F6.3°C 40.7°F4.8°C 90% 4.6 mph SE7.4 kmh SE 9.2 mph14.8 kmh 29.85 in1010.8 mb - 0.01 in0.3 mm 0.39 in9.9 mm
05:30 AM 43.4°F6.3°C 40.7°F4.8°C 90% 4.6 mph SSE7.4 kmh SSE 6.9 mph11.1 kmh 29.84 in1010.5 mb - 0.01 in0.3 mm 0.39 in9.9 mm
05:25 AM 43.5°F6.4°C 40.8°F4.9°C 90% 4.6 mph SE7.4 kmh SE 10.4 mph16.7 kmh 29.84 in1010.5 mb - 0.01 in0.3 mm 0.39 in9.9 mm
05:20 AM 43.6°F6.4°C 40.9°F4.9°C 90% 5.8 mph SE9.3 kmh SE 9.2 mph14.8 kmh 29.84 in1010.5 mb - 0.01 in0.3 mm 0.39 in9.9 mm
05:15 AM 43.7°F6.5°C 40.7°F4.8°C 89% 4.6 mph SE7.4 kmh SE 10.4 mph16.7 kmh 29.84 in1010.5 mb - 0.01 in0.3 mm 0.39 in9.9 mm
05:10 AM 43.8°F6.6°C 40.8°F4.9°C 89% 5.8 mph ESE9.3 kmh ESE 12.7 mph20.4 kmh 29.84 in1010.5 mb - 0.02 in0.5 mm 0.39 in9.9 mm
05:00 AM 43.6°F6.4°C 40.6°F4.8°C 89% 6.9 mph SE11.1 kmh SE 11.5 mph18.5 kmh 29.84 in1010.5 mb - 0.01 in0.3 mm 0.38 in9.7 mm
04:55 AM 43.6°F6.4°C 40.6°F4.8°C 89% 4.6 mph SE7.4 kmh SE 8.1 mph13.0 kmh 29.84 in1010.5 mb - 0.01 in0.3 mm 0.38 in9.7 mm
04:50 AM 43.6°F6.4°C 40.6°F4.8°C 89% 5.8 mph SE9.3 kmh SE 10.4 mph16.7 kmh 29.84 in1010.5 mb - 0.01 in0.3 mm 0.38 in9.7 mm
04:45 AM 43.5°F6.4°C 40.8°F4.9°C 90% 6.9 mph SE11.1 kmh SE 9.2 mph14.8 kmh 29.83 in1010.2 mb - 0.01 in0.3 mm 0.38 in9.7 mm
04:40 AM 43.4°F6.3°C 40.7°F4.8°C 90% 6.9 mph SE11.1 kmh SE 10.4 mph16.7 kmh 29.83 in1010.2 mb - 0.01 in0.3 mm 0.38 in9.7 mm
04:35 AM 43.3°F6.3°C 40.6°F4.8°C 90% 5.8 mph SE9.3 kmh SE 9.2 mph14.8 kmh 29.83 in1010.2 mb - 0.01 in0.3 mm 0.38 in9.7 mm
04:30 AM 43.3°F6.3°C 40.6°F4.8°C 90% 5.8 mph SE9.3 kmh SE 11.5 mph18.5 kmh 29.83 in1010.2 mb - 0.01 in0.3 mm 0.38 in9.7 mm
04:25 AM 43.4°F6.3°C 40.7°F4.8°C 90% 4.6 mph SE7.4 kmh SE 8.1 mph13.0 kmh 29.83 in1010.2 mb - 0.01 in0.3 mm 0.38 in9.7 mm
04:20 AM 43.5°F6.4°C 40.8°F4.9°C 90% 5.8 mph SE9.3 kmh SE 8.1 mph13.0 kmh 29.84 in1010.5 mb - 0.01 in0.3 mm 0.38 in9.7 mm
04:15 AM 43.6°F6.4°C 40.5°F4.7°C 89% 8.1 mph SE13.0 kmh SE 12.7 mph20.4 kmh 29.84 in1010.5 mb - 0.01 in0.3 mm 0.38 in9.7 mm
04:10 AM 43.7°F6.5°C 40.6°F4.8°C 89% 5.8 mph SE9.3 kmh SE 11.5 mph18.5 kmh 29.84 in1010.5 mb - 0.00 in0.0 mm 0.37 in9.4 mm
04:00 AM 43.6°F6.4°C 40.3°F4.6°C 88% 8.1 mph SE13.0 kmh SE 11.5 mph18.5 kmh 29.83 in1010.2 mb - 0.00 in0.0 mm 0.37 in9.4 mm
03:55 AM 43.4°F6.3°C 40.3°F4.6°C 89% 6.9 mph SE11.1 kmh SE 11.5 mph18.5 kmh 29.84 in1010.5 mb - 0.01 in0.3 mm 0.37 in9.4 mm
03:50 AM 43.3°F6.3°C 40.3°F4.6°C 89% 2.3 mph SE3.7 kmh SE 6.9 mph11.1 kmh 29.83 in1010.2 mb - 0.01 in0.3 mm 0.37 in9.4 mm
03:45 AM 43.1°F6.2°C 40.0°F4.4°C 89% 5.8 mph ESE9.3 kmh ESE 9.2 mph14.8 kmh 29.83 in1010.2 mb - 0.01 in0.3 mm 0.37 in9.4 mm
03:40 AM 42.6°F5.9°C 39.6°F4.2°C 89% 3.5 mph ESE5.6 kmh ESE 8.1 mph13.0 kmh 29.83 in1010.2 mb - 0.01 in0.3 mm 0.37 in9.4 mm
03:35 AM 42.6°F5.9°C 39.6°F4.2°C 89% 4.6 mph SE7.4 kmh SE 8.1 mph13.0 kmh 29.84 in1010.5 mb - 0.02 in0.5 mm 0.37 in9.4 mm
03:30 AM 42.5°F5.8°C 39.5°F4.2°C 89% 5.8 mph E9.3 kmh E 9.2 mph14.8 kmh 29.84 in1010.5 mb - 0.02 in0.5 mm 0.37 in9.4 mm
03:25 AM 42.5°F5.8°C 39.5°F4.2°C 89% 4.6 mph ESE7.4 kmh ESE 3.5 mph5.6 kmh 29.84 in1010.5 mb - 0.02 in0.5 mm 0.37 in9.4 mm
03:20 AM 42.4°F5.8°C 39.4°F4.1°C 89% 5.8 mph E9.3 kmh E 10.4 mph16.7 kmh 29.84 in1010.5 mb - 0.02 in0.5 mm 0.37 in9.4 mm
03:15 AM 42.2°F5.7°C 39.7°F4.3°C 91% 4.6 mph E7.4 kmh E 10.4 mph16.7 kmh 29.84 in1010.5 mb - 0.03 in0.8 mm 0.37 in9.4 mm
03:10 AM 42.0°F5.6°C 39.9°F4.4°C 92% 2.3 mph E3.7 kmh E 9.2 mph14.8 kmh 29.84 in1010.5 mb - 0.03 in0.8 mm 0.37 in9.4 mm
03:00 AM 42.3°F5.7°C 40.7°F4.8°C 94% Calm Calm -- 29.85 in1010.8 mb - 0.04 in1.0 mm 0.37 in9.4 mm
02:55 AM 42.4°F5.8°C 40.7°F4.8°C 94% Calm Calm 1.2 mph1.9 kmh 29.85 in1010.8 mb - 0.04 in1.0 mm 0.36 in9.1 mm
02:50 AM 42.3°F5.7°C 40.7°F4.8°C 94% Calm Calm -- 29.85 in1010.8 mb - 0.04 in1.0 mm 0.36 in9.1 mm
02:45 AM 42.3°F5.7°C 40.7°F4.8°C 94% Calm Calm -- 29.85 in1010.8 mb - 0.05 in1.3 mm 0.36 in9.1 mm
02:40 AM 42.3°F5.7°C 40.7°F4.8°C 94% Calm Calm 3.5 mph5.6 kmh 29.86 in1011.2 mb - 0.07 in1.8 mm 0.36 in9.1 mm
02:35 AM 42.2°F5.7°C 40.6°F4.8°C 94% 3.5 mph E5.6 kmh E 3.5 mph5.6 kmh 29.86 in1011.2 mb - 0.08 in2.0 mm 0.36 in9.1 mm
02:30 AM 42.2°F5.7°C 40.6°F4.8°C 94% 2.3 mph E3.7 kmh E 3.5 mph5.6 kmh 29.86 in1011.2 mb - 0.08 in2.0 mm 0.35 in8.9 mm
02:25 AM 42.2°F5.7°C 40.6°F4.8°C 94% 3.5 mph ESE5.6 kmh ESE 5.8 mph9.3 kmh 29.86 in1011.2 mb - 0.10 in2.5 mm 0.35 in8.9 mm
02:20 AM 42.2°F5.7°C 40.6°F4.8°C 94% 1.2 mph SSE1.9 kmh SSE 3.5 mph5.6 kmh 29.86 in1011.2 mb - 0.10 in2.5 mm 0.35 in8.9 mm
02:15 AM 42.4°F5.8°C 40.8°F4.9°C 94% 5.8 mph ESE9.3 kmh ESE 9.2 mph14.8 kmh 29.86 in1011.2 mb - 0.10 in2.5 mm 0.34 in8.6 mm
02:10 AM 42.5°F5.8°C 40.9°F4.9°C 94% 3.5 mph SE5.6 kmh SE 4.6 mph7.4 kmh 29.86 in1011.2 mb - 0.11 in2.8 mm 0.34 in8.6 mm
02:00 AM 42.6°F5.9°C 41.0°F5.0°C 94% 4.6 mph SE7.4 kmh SE 6.9 mph11.1 kmh 29.86 in1011.2 mb - 0.13 in3.3 mm 0.33 in8.4 mm
01:55 AM 42.7°F5.9°C 41.1°F5.1°C 94% 2.3 mph SE3.7 kmh SE 3.5 mph5.6 kmh 29.86 in1011.2 mb - 0.14 in3.6 mm 0.32 in8.1 mm
01:50 AM 42.8°F6.0°C 41.2°F5.1°C 94% Calm Calm -- 29.85 in1010.8 mb - 0.16 in4.1 mm 0.32 in8.1 mm
01:45 AM 42.9°F6.1°C 41.3°F5.2°C 94% Calm Calm -- 29.84 in1010.5 mb - 0.16 in4.1 mm 0.31 in7.9 mm
01:40 AM 42.9°F6.1°C 41.3°F5.2°C 94% Calm Calm -- 29.84 in1010.5 mb - 0.17 in4.3 mm 0.30 in7.6 mm
01:35 AM 42.9°F6.1°C 41.3°F5.2°C 94% Calm Calm 3.5 mph5.6 kmh 29.84 in1010.5 mb - 0.16 in4.1 mm 0.28 in7.1 mm
01:30 AM 43.0°F6.1°C 41.4°F5.2°C 94% Calm Calm -- 29.84 in1010.5 mb - 0.16 in4.1 mm 0.27 in6.9 mm
01:25 AM 43.0°F6.1°C 41.4°F5.2°C 94% Calm Calm -- 29.84 in1010.5 mb - 0.17 in4.3 mm 0.26 in6.6 mm
01:20 AM 42.9°F6.1°C 41.3°F5.2°C 94% Calm Calm -- 29.84 in1010.5 mb - 0.17 in4.3 mm 0.25 in6.4 mm
01:15 AM 42.8°F6.0°C 41.2°F5.1°C 94% Calm Calm -- 29.85 in1010.8 mb - 0.19 in4.8 mm 0.24 in6.1 mm
01:10 AM 42.7°F5.9°C 40.8°F4.9°C 93% Calm Calm -- 29.85 in1010.8 mb - 0.22 in5.6 mm 0.23 in5.8 mm
01:00 AM 42.6°F5.9°C 40.7°F4.8°C 93% Calm Calm -- 29.85 in1010.8 mb - 0.20 in5.1 mm 0.20 in5.1 mm
12:55 AM 42.4°F5.8°C 40.6°F4.8°C 93% Calm Calm -- 29.85 in1010.8 mb - 0.19 in4.8 mm 0.19 in4.8 mm
12:50 AM 42.3°F5.7°C 40.2°F4.6°C 92% Calm Calm -- 29.86 in1011.2 mb - 0.16 in4.1 mm 0.16 in4.1 mm
12:45 AM 42.4°F5.8°C 40.2°F4.6°C 92% Calm Calm -- 29.85 in1010.8 mb - 0.16 in4.1 mm 0.15 in3.8 mm
12:40 AM 42.5°F5.8°C 40.3°F4.6°C 92% 2.3 mph S3.7 kmh S 3.5 mph5.6 kmh 29.86 in1011.2 mb - 0.14 in3.6 mm 0.13 in3.3 mm
12:35 AM 42.5°F5.8°C 40.3°F4.6°C 92% 3.5 mph SE5.6 kmh SE 6.9 mph11.1 kmh 29.86 in1011.2 mb - 0.16 in4.1 mm 0.12 in3.0 mm
12:30 AM 42.7°F5.9°C 40.3°F4.6°C 91% 3.5 mph SSW5.6 kmh SSW 5.8 mph9.3 kmh 29.86 in1011.2 mb - 0.16 in4.1 mm 0.11 in2.8 mm
12:25 AM 42.9°F6.1°C 40.2°F4.6°C 90% 2.3 mph S3.7 kmh S 3.5 mph5.6 kmh 29.85 in1010.8 mb - 0.16 in4.1 mm 0.10 in2.5 mm
12:20 AM 43.4°F6.3°C 40.3°F4.6°C 89% 3.5 mph SW5.6 kmh SW 5.8 mph9.3 kmh 29.85 in1010.8 mb - 0.14 in3.6 mm 0.08 in2.0 mm
12:15 AM 44.3°F6.8°C 41.2°F5.1°C 89% 6.9 mph S11.1 kmh S 13.8 mph22.2 kmh 29.85 in1010.8 mb - 0.12 in3.0 mm 0.06 in1.5 mm
12:10 AM 45.6°F7.6°C 42.8°F6.0°C 90% 3.5 mph S5.6 kmh S 11.5 mph18.5 kmh 29.83 in1010.2 mb - 0.08 in2.0 mm 0.02 in0.5 mm
12:00 AM 46.3°F7.9°C 43.5°F6.4°C 90% Calm Calm -- 29.81 in1009.5 mb - 0.08 in2.0 mm 0.08 in2.0 mm